createdAt,value
2023-03-22T00:01:24.812Z,100.00
2023-03-22T00:03:52.488Z,100.00
2023-03-22T00:06:19.479Z,100.00
2023-03-22T00:08:50.766Z,100.00
2023-03-22T00:11:19.041Z,100.00
2023-03-22T00:13:47.085Z,100.00
2023-03-22T00:16:14.799Z,100.00
2023-03-22T00:18:41.786Z,100.00
2023-03-22T00:21:13.446Z,100.00
2023-03-22T00:23:40.904Z,100.00
2023-03-22T00:26:08.934Z,100.00
2023-03-22T00:28:36.212Z,100.00
2023-03-22T00:31:04.695Z,100.00
2023-03-22T00:33:32.386Z,100.00
2023-03-22T00:36:02.136Z,100.00
2023-03-22T00:38:43.741Z,100.00
2023-03-22T00:41:18.011Z,100.00
2023-03-22T00:43:45.730Z,100.00
2023-03-22T00:46:13.373Z,100.00
2023-03-22T00:48:40.625Z,100.00
2023-03-22T00:51:08.527Z,100.00
2023-03-22T00:53:36.638Z,100.00
2023-03-22T00:56:05.102Z,100.00
2023-03-22T00:58:32.085Z,100.00
2023-03-22T01:00:58.640Z,100.00
2023-03-22T01:05:57.019Z,100.00
2023-03-22T01:08:25.628Z,100.00
2023-03-22T01:10:52.328Z,100.00
2023-03-22T01:13:19.110Z,100.00
2023-03-22T01:15:47.936Z,100.00
2023-03-22T01:18:14.536Z,100.00
2023-03-22T01:20:41.377Z,100.00
2023-03-22T01:23:08.046Z,100.00
2023-03-22T01:25:34.714Z,100.00
2023-03-22T01:28:02.782Z,100.00
2023-03-22T01:30:30.340Z,100.00
2023-03-22T01:32:57.083Z,100.00
2023-03-22T01:35:23.765Z,100.00
2023-03-22T01:37:50.342Z,100.00
2023-03-22T01:40:17.308Z,100.00
2023-03-22T01:42:43.811Z,100.00
2023-03-22T01:45:18.985Z,100.00
2023-03-22T01:47:57.436Z,100.00
2023-03-22T01:50:25.902Z,100.00
2023-03-22T01:52:54.723Z,100.00
2023-03-22T01:55:22.895Z,100.00
2023-03-22T01:57:50.724Z,100.00
2023-03-22T02:00:18.997Z,100.00
2023-03-22T02:02:49.428Z,100.00
2023-03-22T02:05:17.354Z,100.00
2023-03-22T02:07:44.221Z,100.00
2023-03-22T02:10:21.370Z,100.00
2023-03-22T02:13:20.245Z,100.00
2023-03-22T02:16:28.447Z,100.00
2023-03-22T02:18:57.860Z,100.00
2023-03-22T02:21:45.282Z,100.00
2023-03-22T02:24:43.910Z,100.00
2023-03-22T02:27:25.971Z,100.00
2023-03-22T02:30:04.532Z,100.00
2023-03-22T02:32:46.134Z,100.00
2023-03-22T02:35:33.602Z,100.00
2023-03-22T02:38:17.228Z,100.00
2023-03-22T02:41:08.236Z,100.00
2023-03-22T02:44:00.294Z,100.00
2023-03-22T02:46:38.553Z,100.00
2023-03-22T02:49:19.580Z,100.00
2023-03-22T02:51:53.112Z,100.00
2023-03-22T02:54:28.900Z,100.00
2023-03-22T02:57:03.178Z,100.00
2023-03-22T02:59:33.557Z,100.00
2023-03-22T03:02:03.777Z,100.00
2023-03-22T03:04:35.545Z,100.00
2023-03-22T03:07:08.032Z,100.00
2023-03-22T03:09:36.743Z,100.00
2023-03-22T03:12:09.588Z,100.00
2023-03-22T03:14:36.054Z,100.00
2023-03-22T03:17:20.422Z,100.00
2023-03-22T03:20:07.960Z,100.00
2023-03-22T03:22:49.901Z,100.00
2023-03-22T03:25:57.932Z,100.00
2023-03-22T03:28:38.540Z,100.00
2023-03-22T03:31:26.348Z,100.00
2023-03-22T03:34:30.002Z,100.00
2023-03-22T03:37:05.805Z,100.00
2023-03-22T03:39:35.560Z,100.00
2023-03-22T03:42:04.887Z,100.00
2023-03-22T03:44:32.814Z,100.00
2023-03-22T03:47:00.009Z,100.00
2023-03-22T03:49:27.362Z,100.00
2023-03-22T03:51:55.744Z,100.00
2023-03-22T03:54:23.575Z,100.00
2023-03-22T03:56:50.984Z,100.00
2023-03-22T03:59:18.812Z,100.00
2023-03-22T04:01:52.946Z,100.00
2023-03-22T04:04:28.344Z,100.00
2023-03-22T04:06:59.566Z,100.00
2023-03-22T04:09:28.236Z,100.00
2023-03-22T04:11:55.784Z,100.00
2023-03-22T04:14:23.289Z,100.00
2023-03-22T04:16:50.484Z,100.00
2023-03-22T04:19:17.332Z,100.00
2023-03-22T04:21:44.024Z,100.00
2023-03-22T04:24:10.609Z,100.00
2023-03-22T04:26:37.138Z,100.00
2023-03-22T04:29:04.264Z,100.00
2023-03-22T04:31:32.474Z,100.00
2023-03-22T04:34:00.499Z,100.00
2023-03-22T04:36:31.209Z,100.00
2023-03-22T04:41:30.383Z,100.00
2023-03-22T04:43:57.742Z,100.00
2023-03-22T04:46:24.581Z,100.00
2023-03-22T04:48:51.110Z,100.00
2023-03-22T04:51:17.653Z,100.00
2023-03-22T04:53:44.228Z,100.00
2023-03-22T04:56:12.898Z,100.00
2023-03-22T04:58:40.947Z,100.00
2023-03-22T05:01:08.827Z,100.00
2023-03-22T05:03:35.413Z,100.00
2023-03-22T05:06:03.990Z,100.00
2023-03-22T05:08:32.342Z,100.00
2023-03-22T05:11:04.454Z,100.00
2023-03-22T05:13:31.682Z,100.00
2023-03-22T05:15:58.249Z,100.00
2023-03-22T05:18:26.349Z,100.00
2023-03-22T05:20:56.054Z,100.00
2023-03-22T05:23:23.176Z,100.00
2023-03-22T05:25:51.597Z,100.00
2023-03-22T05:28:21.439Z,100.00
2023-03-22T05:30:52.109Z,100.00
2023-03-22T05:33:24.460Z,100.00
2023-03-22T05:35:51.962Z,100.00
2023-03-22T05:38:18.530Z,100.00
2023-03-22T05:40:45.518Z,100.00
2023-03-22T05:43:12.590Z,100.00
2023-03-22T05:45:39.216Z,100.00
2023-03-22T05:48:06.153Z,100.00
2023-03-22T05:50:32.818Z,100.00
2023-03-22T05:52:59.318Z,100.00
2023-03-22T05:55:26.436Z,100.00
2023-03-22T05:57:54.813Z,100.00
2023-03-22T06:00:21.887Z,100.00
2023-03-22T06:02:49.893Z,100.00
2023-03-22T06:05:17.626Z,100.00
2023-03-22T06:07:44.820Z,100.00
2023-03-22T06:10:13.957Z,100.00
2023-03-22T06:12:40.920Z,100.00
2023-03-22T06:15:08.540Z,100.00
2023-03-22T06:17:35.110Z,100.00
2023-03-22T06:20:01.637Z,100.00
2023-03-22T06:22:30.621Z,100.00
2023-03-22T06:24:57.106Z,100.00
2023-03-22T06:27:23.659Z,100.00
2023-03-22T06:29:51.107Z,100.00
2023-03-22T06:32:17.988Z,100.00
2023-03-22T06:34:44.643Z,100.00
2023-03-22T06:37:11.130Z,100.00
2023-03-22T06:39:37.649Z,100.00
2023-03-22T06:42:04.275Z,100.00
2023-03-22T06:44:30.864Z,100.00
2023-03-22T06:46:57.393Z,100.00
2023-03-22T06:49:24.197Z,100.00
2023-03-22T06:51:50.715Z,100.00
2023-03-22T06:54:17.230Z,100.00
2023-03-22T06:56:43.782Z,100.00
2023-03-22T06:59:10.564Z,100.00
2023-03-22T07:01:37.195Z,100.00
2023-03-22T07:04:04.136Z,100.00
2023-03-22T07:06:32.750Z,100.00
2023-03-22T07:08:59.703Z,100.00
2023-03-22T07:11:26.570Z,100.00
2023-03-22T07:13:54.142Z,100.00
2023-03-22T07:16:21.588Z,100.00
2023-03-22T07:18:48.660Z,100.00
2023-03-22T07:21:15.476Z,100.00
2023-03-22T07:23:42.048Z,100.00
2023-03-22T07:26:08.700Z,100.00
2023-03-22T07:28:35.561Z,100.00
2023-03-22T07:31:02.987Z,100.00
2023-03-22T07:33:29.716Z,100.00
2023-03-22T07:35:56.689Z,99.26
2023-03-22T07:38:23.261Z,99.96
2023-03-22T07:40:54.744Z,100.00
2023-03-22T07:43:22.558Z,100.00
2023-03-22T07:45:50.559Z,100.00
2023-03-22T07:48:18.383Z,100.00
2023-03-22T07:50:45.662Z,100.00
2023-03-22T07:53:12.456Z,96.24
2023-03-22T07:55:39.687Z,91.02
2023-03-22T07:58:06.286Z,90.07
2023-03-22T08:00:32.960Z,82.40
2023-03-22T08:05:31.815Z,79.53
2023-03-22T08:07:58.314Z,80.07
2023-03-22T08:10:24.814Z,75.92
2023-03-22T08:12:51.409Z,69.37
2023-03-22T08:15:17.998Z,71.75
2023-03-22T08:17:44.698Z,71.40
2023-03-22T08:20:12.935Z,73.28
2023-03-22T08:22:39.604Z,76.08
2023-03-22T08:25:07.232Z,80.47
2023-03-22T08:27:33.756Z,77.95
2023-03-22T08:30:00.975Z,75.64
2023-03-22T08:32:27.546Z,72.97
2023-03-22T08:34:54.091Z,71.87
2023-03-22T08:37:20.752Z,70.34
2023-03-22T08:39:47.530Z,66.32
2023-03-22T08:42:14.032Z,69.65
2023-03-22T08:44:40.689Z,69.34
2023-03-22T08:47:07.357Z,71.92
2023-03-22T08:49:33.978Z,70.40
2023-03-22T08:52:00.573Z,70.63
2023-03-22T08:54:33.650Z,71.25
2023-03-22T08:57:00.804Z,69.51
2023-03-22T08:59:27.911Z,70.69
2023-03-22T09:01:54.460Z,69.84
2023-03-22T09:04:21.031Z,68.82
2023-03-22T09:06:47.665Z,69.66
2023-03-22T09:09:14.772Z,66.05
2023-03-22T09:11:42.857Z,65.81
2023-03-22T09:14:10.246Z,62.89
2023-03-22T09:16:37.096Z,63.31
2023-03-22T09:19:03.816Z,64.70
2023-03-22T09:21:34.658Z,62.70
2023-03-22T09:24:01.338Z,60.92
2023-03-22T09:26:28.062Z,54.00
2023-03-22T09:28:54.757Z,54.27
2023-03-22T09:31:21.373Z,56.81
2023-03-22T09:33:47.909Z,54.43
2023-03-22T09:36:14.452Z,55.42
2023-03-22T09:38:42.170Z,58.78
2023-03-22T09:41:21.129Z,58.67
2023-03-22T09:43:53.617Z,57.77
2023-03-22T09:46:30.602Z,59.55
2023-03-22T09:49:00.045Z,60.37
2023-03-22T09:51:43.799Z,59.64
2023-03-22T09:54:21.432Z,58.36
2023-03-22T09:56:58.817Z,58.24
2023-03-22T09:59:29.988Z,57.82
2023-03-22T10:02:18.939Z,60.19
2023-03-22T10:05:34.808Z,60.54
2023-03-22T10:08:18.558Z,61.51
2023-03-22T10:10:45.527Z,61.69
2023-03-22T10:13:34.199Z,60.09
2023-03-22T10:16:05.044Z,57.32
2023-03-22T10:18:52.266Z,56.90
2023-03-22T10:21:20.192Z,58.93
2023-03-22T10:23:55.969Z,58.09
2023-03-22T10:26:31.980Z,57.26
2023-03-22T10:29:04.636Z,60.48
2023-03-22T10:31:32.342Z,56.68
2023-03-22T10:34:02.155Z,58.47
2023-03-22T10:36:31.557Z,57.67
2023-03-22T10:39:05.226Z,53.56
2023-03-22T10:41:33.695Z,52.08
2023-03-22T10:44:04.618Z,50.13
2023-03-22T10:46:38.637Z,52.20
2023-03-22T10:49:07.273Z,52.88
2023-03-22T10:51:48.727Z,52.81
2023-03-22T10:54:17.796Z,52.46
2023-03-22T10:56:45.118Z,50.10
2023-03-22T10:59:49.851Z,52.14
2023-03-22T11:02:32.172Z,54.78
2023-03-22T11:05:01.655Z,54.31
2023-03-22T11:07:33.318Z,55.22
2023-03-22T11:10:08.938Z,53.72
2023-03-22T11:12:40.019Z,56.23
2023-03-22T11:15:07.554Z,57.67
2023-03-22T11:17:37.686Z,57.87
2023-03-22T11:20:07.826Z,57.16
2023-03-22T11:22:42.696Z,56.61
2023-03-22T11:25:29.403Z,57.05
2023-03-22T11:28:04.823Z,59.32
2023-03-22T11:30:33.080Z,59.58
2023-03-22T11:33:15.522Z,57.55
2023-03-22T11:35:45.739Z,60.54
2023-03-22T11:38:47.250Z,61.10
2023-03-22T11:41:27.093Z,60.59
2023-03-22T11:43:56.882Z,58.62
2023-03-22T11:46:24.456Z,58.51
2023-03-22T11:48:53.104Z,57.06
2023-03-22T11:51:29.888Z,59.33
2023-03-22T11:54:14.118Z,59.23
2023-03-22T11:56:47.200Z,59.48
2023-03-22T11:59:16.897Z,59.17
2023-03-22T12:01:51.641Z,58.47
2023-03-22T12:04:24.446Z,57.26
2023-03-22T12:06:53.941Z,54.81
2023-03-22T12:09:36.547Z,57.04
2023-03-22T12:12:05.734Z,57.53
2023-03-22T12:15:09.532Z,57.24
2023-03-22T12:17:42.460Z,57.91
2023-03-22T12:20:48.520Z,57.05
2023-03-22T12:23:18.429Z,57.57
2023-03-22T12:25:51.684Z,58.46
2023-03-22T12:28:22.448Z,58.92
2023-03-22T12:30:53.295Z,58.75
2023-03-22T12:33:27.657Z,56.98
2023-03-22T12:35:58.655Z,58.10
2023-03-22T12:38:34.093Z,56.78
2023-03-22T12:41:04.928Z,58.18
2023-03-22T12:43:43.173Z,57.05
2023-03-22T12:46:18.385Z,56.07
2023-03-22T12:48:56.081Z,55.45
2023-03-22T12:51:22.805Z,55.66
2023-03-22T12:53:53.191Z,55.90
2023-03-22T12:56:23.299Z,57.90
2023-03-22T12:58:52.529Z,57.74
2023-03-22T13:01:33.528Z,56.63
2023-03-22T13:04:00.592Z,55.80
2023-03-22T13:06:34.851Z,55.19
2023-03-22T13:09:34.892Z,54.28
2023-03-22T13:12:16.940Z,53.56
2023-03-22T13:14:52.490Z,54.32
2023-03-22T13:17:25.516Z,54.94
2023-03-22T13:20:01.188Z,54.30
2023-03-22T13:22:49.180Z,54.78
2023-03-22T13:25:23.748Z,53.10
2023-03-22T13:27:54.636Z,53.53
2023-03-22T13:30:21.926Z,53.48
2023-03-22T13:32:54.580Z,53.57
2023-03-22T13:35:35.977Z,51.08
2023-03-22T13:38:08.839Z,52.12
2023-03-22T13:40:50.764Z,52.38
2023-03-22T13:43:17.182Z,52.15
2023-03-22T13:46:14.288Z,51.88
2023-03-22T13:48:52.721Z,50.36
2023-03-22T13:51:25.809Z,50.19
2023-03-22T13:54:13.461Z,49.66
2023-03-22T13:56:43.181Z,50.60
2023-03-22T13:59:33.852Z,50.97
2023-03-22T14:02:16.386Z,50.77
2023-03-22T14:04:48.880Z,50.45
2023-03-22T14:07:25.871Z,49.30
2023-03-22T14:09:57.415Z,48.54
2023-03-22T14:12:33.495Z,49.73
2023-03-22T14:15:04.688Z,49.22
2023-03-22T14:17:56.199Z,49.56
2023-03-22T14:20:27.070Z,48.78
2023-03-22T14:54:22.117Z,52.78
2023-03-22T14:56:49.874Z,53.91
2023-03-22T14:59:19.451Z,52.81
2023-03-22T15:01:54.153Z,53.85
2023-03-22T15:04:22.317Z,53.78
2023-03-22T15:06:57.550Z,53.56
2023-03-22T15:09:25.284Z,53.10
2023-03-22T15:11:59.133Z,53.65
2023-03-22T15:14:26.553Z,52.07
2023-03-22T15:16:53.840Z,52.55
2023-03-22T15:19:23.264Z,52.55
2023-03-22T15:22:04.492Z,52.50
2023-03-22T15:24:38.194Z,52.33
2023-03-22T15:27:10.245Z,53.07
2023-03-22T15:29:36.963Z,53.59
2023-03-22T15:32:04.500Z,54.24
2023-03-22T15:34:33.300Z,53.94
2023-03-22T15:37:01.560Z,54.62
2023-03-22T15:39:40.394Z,54.34
2023-03-22T15:42:25.521Z,53.83
2023-03-22T15:45:01.950Z,53.63
2023-03-22T15:47:43.025Z,54.06
2023-03-22T15:50:09.861Z,54.21
2023-03-22T15:52:38.255Z,54.82
2023-03-22T15:55:17.832Z,55.28
2023-03-22T15:57:55.457Z,55.91
2023-03-22T16:00:33.714Z,56.42
2023-03-22T16:03:06.497Z,56.43
2023-03-22T16:05:35.731Z,56.73
2023-03-22T16:08:04.874Z,57.23
2023-03-22T16:10:33.614Z,58.12
2023-03-22T16:13:01.157Z,58.65
2023-03-22T16:15:30.469Z,58.97
2023-03-22T16:17:58.332Z,59.02
2023-03-22T16:20:32.772Z,59.31
2023-03-22T16:23:01.849Z,60.33
2023-03-22T16:25:31.430Z,60.76
2023-03-22T16:27:58.055Z,60.35
2023-03-22T16:30:24.649Z,60.56
2023-03-22T16:32:51.320Z,60.40
2023-03-22T16:35:23.039Z,60.46
2023-03-22T16:37:50.449Z,61.13
2023-03-22T16:40:22.909Z,61.61
2023-03-22T16:42:49.884Z,61.39
2023-03-22T16:45:28.017Z,61.24
2023-03-22T16:47:55.651Z,62.16
2023-03-22T16:50:24.047Z,62.36
2023-03-22T16:52:53.662Z,62.67
2023-03-22T16:55:23.765Z,62.89
2023-03-22T16:57:51.096Z,63.97
2023-03-22T17:00:20.214Z,63.99
2023-03-22T17:02:49.352Z,63.19
2023-03-22T17:05:17.714Z,62.98
2023-03-22T17:07:44.300Z,62.98
2023-03-22T17:10:11.861Z,63.44
2023-03-22T17:12:39.310Z,64.34
2023-03-22T17:15:24.425Z,65.56
2023-03-22T17:17:51.030Z,66.52
2023-03-22T17:20:21.546Z,67.50
2023-03-22T17:22:49.152Z,68.37
2023-03-22T17:25:23.134Z,68.94
2023-03-22T17:27:50.455Z,69.50
2023-03-22T17:30:17.481Z,69.99
2023-03-22T17:32:57.850Z,70.02
2023-03-22T17:35:30.896Z,69.85
2023-03-22T17:37:59.158Z,69.65
2023-03-22T17:40:33.160Z,69.21
2023-03-22T17:43:06.922Z,69.12
2023-03-22T17:46:00.991Z,69.04
2023-03-22T17:48:22.727Z,69.08
2023-03-22T17:50:50.183Z,68.96
2023-03-22T17:53:30.195Z,69.15
2023-03-22T17:58:41.812Z,69.88
2023-03-22T18:01:11.672Z,69.78
2023-03-22T18:03:38.741Z,70.28
2023-03-22T18:06:05.641Z,70.71
2023-03-22T18:08:32.582Z,70.72
2023-03-22T18:10:59.225Z,71.14
2023-03-22T18:13:26.115Z,71.33
2023-03-22T18:15:52.779Z,71.35
2023-03-22T18:18:19.372Z,71.57
2023-03-22T18:20:57.339Z,71.75
2023-03-22T18:23:24.614Z,71.97
2023-03-22T18:25:58.129Z,71.71
2023-03-22T18:28:24.757Z,71.91
2023-03-22T18:30:53.857Z,72.15
2023-03-22T18:33:20.564Z,72.78
2023-03-22T18:35:56.369Z,72.82
2023-03-22T18:39:03.006Z,73.75
2023-03-22T18:41:34.564Z,74.14
2023-03-22T18:43:58.776Z,74.75
2023-03-22T18:46:25.685Z,74.98
2023-03-22T18:48:52.305Z,75.62
2023-03-22T18:51:21.736Z,75.51
2023-03-22T18:53:48.362Z,76.23
2023-03-22T18:58:42.043Z,76.59
2023-03-22T19:01:08.716Z,77.14
2023-03-22T19:03:35.919Z,77.46
2023-03-22T19:06:04.695Z,78.00
2023-03-22T19:08:31.341Z,78.19
2023-03-22T19:10:58.085Z,79.07
2023-03-22T19:13:24.726Z,79.22
2023-03-22T19:15:51.801Z,79.71
2023-03-22T19:18:18.784Z,80.37
2023-03-22T19:23:16.042Z,81.00
2023-03-22T19:25:42.997Z,81.64
2023-03-22T19:28:09.846Z,81.57
2023-03-22T19:30:36.512Z,82.28
2023-03-22T19:35:35.625Z,83.10
2023-03-22T19:38:02.392Z,83.65
2023-03-22T19:42:58.634Z,84.14
2023-03-22T19:45:25.864Z,84.42
2023-03-22T19:48:02.077Z,84.65
2023-03-22T19:50:30.689Z,84.89
2023-03-22T19:52:57.972Z,85.01
2023-03-22T19:55:25.130Z,85.55
2023-03-22T19:57:51.752Z,85.54
2023-03-22T20:00:44.448Z,86.04
2023-03-22T20:03:05.686Z,86.83
2023-03-22T20:05:35.000Z,87.49
2023-03-22T20:08:07.895Z,88.63
2023-03-22T20:10:36.622Z,89.63
2023-03-22T20:13:03.652Z,90.35
2023-03-22T20:15:30.436Z,90.68
2023-03-22T20:17:57.058Z,91.00
2023-03-22T20:20:25.272Z,91.61
2023-03-22T20:22:53.826Z,91.76
2023-03-22T20:25:21.802Z,90.79
2023-03-22T20:27:49.171Z,90.83
2023-03-22T20:30:17.701Z,90.70
2023-03-22T20:32:45.252Z,91.08
2023-03-22T20:35:12.617Z,90.93
2023-03-22T20:37:39.573Z,90.97
2023-03-22T20:40:07.170Z,91.03
2023-03-22T20:42:34.515Z,91.20
2023-03-22T20:45:02.114Z,91.49
2023-03-22T20:47:31.196Z,91.87
2023-03-22T20:49:58.534Z,92.51
2023-03-22T20:52:26.593Z,92.70
2023-03-22T20:54:53.171Z,92.88
2023-03-22T20:57:20.177Z,93.57
2023-03-22T20:59:47.073Z,94.70
2023-03-22T21:02:13.779Z,95.67
2023-03-22T21:04:40.670Z,95.10
2023-03-22T21:07:07.726Z,94.34
2023-03-22T21:09:34.346Z,91.94
2023-03-22T21:12:01.033Z,90.70
2023-03-22T21:14:27.922Z,89.34
2023-03-22T21:16:54.726Z,87.92
2023-03-22T21:19:21.766Z,88.69
2023-03-22T21:21:51.550Z,88.08
2023-03-22T21:24:18.303Z,87.70
2023-03-22T21:26:45.608Z,87.25
2023-03-22T21:29:12.534Z,87.62
2023-03-22T21:31:39.558Z,88.59
2023-03-22T21:34:09.283Z,88.88
2023-03-22T21:36:36.981Z,88.50
2023-03-22T21:39:08.339Z,89.44
2023-03-22T21:41:36.674Z,92.31
2023-03-22T21:44:06.789Z,94.10
2023-03-22T21:46:33.437Z,95.72
2023-03-22T21:49:01.962Z,97.20
2023-03-22T21:51:29.292Z,98.11
2023-03-22T21:53:56.874Z,99.60
2023-03-22T21:56:24.425Z,100.00
2023-03-22T21:58:52.063Z,100.00
2023-03-22T22:01:18.697Z,100.00
2023-03-22T22:03:46.568Z,100.00
2023-03-22T22:06:13.268Z,100.00
2023-03-22T22:08:40.465Z,100.00
2023-03-22T22:11:08.729Z,100.00
2023-03-22T22:13:36.720Z,100.00
2023-03-22T22:16:06.507Z,100.00
2023-03-22T22:18:35.661Z,100.00
2023-03-22T22:21:07.236Z,100.00
2023-03-22T22:23:37.189Z,100.00
2023-03-22T22:28:46.769Z,100.00
2023-03-22T22:31:18.712Z,100.00
2023-03-22T22:33:45.678Z,100.00
2023-03-22T22:36:12.356Z,100.00
2023-03-22T22:38:40.606Z,100.00
2023-03-22T22:41:09.900Z,100.00
2023-03-22T22:43:36.954Z,100.00
2023-03-22T22:46:04.140Z,100.00
2023-03-22T22:48:31.398Z,100.00
2023-03-22T22:51:07.450Z,100.00
2023-03-22T22:53:35.439Z,100.00
2023-03-22T22:56:04.284Z,100.00
2023-03-22T22:58:31.324Z,100.00
2023-03-22T23:00:57.951Z,100.00
2023-03-22T23:03:28.889Z,100.00
2023-03-22T23:05:56.796Z,100.00
2023-03-22T23:08:24.472Z,100.00
2023-03-22T23:10:52.598Z,100.00
2023-03-22T23:13:23.417Z,100.00
2023-03-22T23:15:52.794Z,100.00
2023-03-22T23:18:26.289Z,100.00
2023-03-22T23:20:53.494Z,100.00
2023-03-22T23:23:21.973Z,100.00
2023-03-22T23:25:51.773Z,100.00
2023-03-22T23:28:22.768Z,100.00
2023-03-22T23:30:49.848Z,100.00
2023-03-22T23:33:16.847Z,100.00
2023-03-22T23:35:44.080Z,100.00
2023-03-22T23:38:11.105Z,100.00
2023-03-22T23:40:37.804Z,100.00
2023-03-22T23:43:04.963Z,100.00
2023-03-22T23:45:31.691Z,100.00
2023-03-22T23:47:58.587Z,100.00
2023-03-22T23:50:25.217Z,100.00
2023-03-22T23:52:51.945Z,100.00
2023-03-22T23:55:18.602Z,100.00
2023-03-22T23:57:47.544Z,100.00
